sensor_id;sensor_type;location;lat;lon;timestamp;P1;durP1;ratioP1;P2;durP2;ratioP2
62957;SDS011;49056;48.352;10.926;2023-06-26T00:00:41;2.87;;;1.83;;
62957;SDS011;49056;48.352;10.926;2023-06-26T00:06:03;3.95;;;2.03;;
62957;SDS011;49056;48.352;10.926;2023-06-26T00:11:23;3.15;;;1.90;;
62957;SDS011;49056;48.352;10.926;2023-06-26T00:16:44;3.45;;;1.95;;
62957;SDS011;49056;48.352;10.926;2023-06-26T00:22:04;4.50;;;2.40;;
62957;SDS011;49056;48.352;10.926;2023-06-26T00:27:25;2.87;;;2.08;;
62957;SDS011;49056;48.352;10.926;2023-06-26T00:32:45;3.28;;;1.77;;
62957;SDS011;49056;48.352;10.926;2023-06-26T00:38:06;3.37;;;2.08;;
62957;SDS011;49056;48.352;10.926;2023-06-26T00:43:26;3.00;;;1.73;;
62957;SDS011;49056;48.352;10.926;2023-06-26T00:48:47;2.70;;;1.80;;
62957;SDS011;49056;48.352;10.926;2023-06-26T00:54:08;3.05;;;1.95;;
62957;SDS011;49056;48.352;10.926;2023-06-26T00:59:28;4.07;;;1.80;;
62957;SDS011;49056;48.352;10.926;2023-06-26T01:04:49;3.70;;;1.97;;
62957;SDS011;49056;48.352;10.926;2023-06-26T01:10:09;2.80;;;1.90;;
62957;SDS011;49056;48.352;10.926;2023-06-26T01:15:30;3.17;;;1.80;;
62957;SDS011;49056;48.352;10.926;2023-06-26T01:20:50;3.80;;;1.93;;
62957;SDS011;49056;48.352;10.926;2023-06-26T01:31:31;3.75;;;2.33;;
62957;SDS011;49056;48.352;10.926;2023-06-26T01:36:52;3.47;;;2.10;;
62957;SDS011;49056;48.352;10.926;2023-06-26T01:42:12;3.85;;;2.33;;
62957;SDS011;49056;48.352;10.926;2023-06-26T01:47:32;3.62;;;2.10;;
62957;SDS011;49056;48.352;10.926;2023-06-26T01:58:18;4.40;;;2.30;;
62957;SDS011;49056;48.352;10.926;2023-06-26T02:03:40;2.85;;;1.90;;
62957;SDS011;49056;48.352;10.926;2023-06-26T02:09:01;3.33;;;1.60;;
62957;SDS011;49056;48.352;10.926;2023-06-26T02:14:22;4.95;;;2.15;;
62957;SDS011;49056;48.352;10.926;2023-06-26T02:19:42;3.47;;;2.00;;
62957;SDS011;49056;48.352;10.926;2023-06-26T02:25:07;3.15;;;2.00;;
62957;SDS011;49056;48.352;10.926;2023-06-26T02:30:27;3.70;;;2.10;;
62957;SDS011;49056;48.352;10.926;2023-06-26T02:35:48;3.25;;;1.92;;
62957;SDS011;49056;48.352;10.926;2023-06-26T02:41:10;3.83;;;1.77;;
62957;SDS011;49056;48.352;10.926;2023-06-26T02:46:30;3.78;;;1.83;;
62957;SDS011;49056;48.352;10.926;2023-06-26T02:51:51;3.63;;;1.77;;
62957;SDS011;49056;48.352;10.926;2023-06-26T02:57:11;2.85;;;2.08;;
62957;SDS011;49056;48.352;10.926;2023-06-26T03:02:32;4.78;;;2.37;;
62957;SDS011;49056;48.352;10.926;2023-06-26T03:07:53;3.30;;;1.92;;
62957;SDS011;49056;48.352;10.926;2023-06-26T03:13:13;3.37;;;2.35;;
62957;SDS011;49056;48.352;10.926;2023-06-26T03:18:33;2.42;;;1.37;;
62957;SDS011;49056;48.352;10.926;2023-06-26T03:23:54;3.42;;;2.08;;
62957;SDS011;49056;48.352;10.926;2023-06-26T03:29:14;3.00;;;1.73;;
62957;SDS011;49056;48.352;10.926;2023-06-26T03:34:34;5.18;;;2.35;;
62957;SDS011;49056;48.352;10.926;2023-06-26T03:39:54;3.83;;;1.93;;
62957;SDS011;49056;48.352;10.926;2023-06-26T03:45:15;2.95;;;1.90;;
62957;SDS011;49056;48.352;10.926;2023-06-26T03:50:35;4.15;;;2.20;;
62957;SDS011;49056;48.352;10.926;2023-06-26T03:55:56;3.95;;;2.40;;
62957;SDS011;49056;48.352;10.926;2023-06-26T04:01:16;2.90;;;1.90;;
62957;SDS011;49056;48.352;10.926;2023-06-26T04:06:36;3.73;;;2.00;;
62957;SDS011;49056;48.352;10.926;2023-06-26T04:11:57;4.00;;;2.13;;
62957;SDS011;49056;48.352;10.926;2023-06-26T04:17:17;3.50;;;1.95;;
62957;SDS011;49056;48.352;10.926;2023-06-26T04:22:37;3.10;;;2.27;;
62957;SDS011;49056;48.352;10.926;2023-06-26T04:27:58;3.22;;;1.75;;
62957;SDS011;49056;48.352;10.926;2023-06-26T04:33:18;4.00;;;2.05;;
62957;SDS011;49056;48.352;10.926;2023-06-26T04:38:38;4.00;;;2.40;;
62957;SDS011;49056;48.352;10.926;2023-06-26T04:43:58;4.50;;;2.28;;
62957;SDS011;49056;48.352;10.926;2023-06-26T04:49:19;3.58;;;2.00;;
62957;SDS011;49056;48.352;10.926;2023-06-26T04:54:40;3.28;;;1.92;;
62957;SDS011;49056;48.352;10.926;2023-06-26T05:00:00;2.80;;;1.50;;
62957;SDS011;49056;48.352;10.926;2023-06-26T05:05:20;3.80;;;1.83;;
62957;SDS011;49056;48.352;10.926;2023-06-26T05:10:41;3.10;;;1.87;;
62957;SDS011;49056;48.352;10.926;2023-06-26T05:16:01;3.43;;;1.73;;
62957;SDS011;49056;48.352;10.926;2023-06-26T05:21:21;3.28;;;1.77;;
62957;SDS011;49056;48.352;10.926;2023-06-26T05:26:42;2.53;;;1.52;;
62957;SDS011;49056;48.352;10.926;2023-06-26T05:32:02;2.73;;;1.67;;
62957;SDS011;49056;48.352;10.926;2023-06-26T05:37:23;2.55;;;1.70;;
62957;SDS011;49056;48.352;10.926;2023-06-26T05:42:44;2.40;;;1.35;;
62957;SDS011;49056;48.352;10.926;2023-06-26T05:48:05;3.22;;;1.70;;
62957;SDS011;49056;48.352;10.926;2023-06-26T05:53:25;3.15;;;1.50;;
62957;SDS011;49056;48.352;10.926;2023-06-26T05:58:46;3.03;;;1.90;;
62957;SDS011;49056;48.352;10.926;2023-06-26T06:04:06;2.65;;;1.58;;
62957;SDS011;49056;48.352;10.926;2023-06-26T06:09:26;3.40;;;1.65;;
62957;SDS011;49056;48.352;10.926;2023-06-26T06:14:47;3.40;;;1.60;;
62957;SDS011;49056;48.352;10.926;2023-06-26T06:20:07;2.83;;;1.70;;
62957;SDS011;49056;48.352;10.926;2023-06-26T06:25:28;2.85;;;1.50;;
62957;SDS011;49056;48.352;10.926;2023-06-26T06:30:48;2.83;;;1.52;;
62957;SDS011;49056;48.352;10.926;2023-06-26T06:36:08;2.20;;;1.45;;
62957;SDS011;49056;48.352;10.926;2023-06-26T06:41:29;4.03;;;1.80;;
62957;SDS011;49056;48.352;10.926;2023-06-26T06:46:49;2.90;;;1.43;;
62957;SDS011;49056;48.352;10.926;2023-06-26T06:52:09;3.40;;;2.03;;
62957;SDS011;49056;48.352;10.926;2023-06-26T06:57:30;3.50;;;1.90;;
62957;SDS011;49056;48.352;10.926;2023-06-26T07:02:50;3.40;;;1.67;;
62957;SDS011;49056;48.352;10.926;2023-06-26T07:08:10;4.10;;;1.90;;
62957;SDS011;49056;48.352;10.926;2023-06-26T07:13:31;2.67;;;1.67;;
62957;SDS011;49056;48.352;10.926;2023-06-26T07:18:51;2.50;;;1.67;;
62957;SDS011;49056;48.352;10.926;2023-06-26T07:24:12;3.08;;;1.65;;
62957;SDS011;49056;48.352;10.926;2023-06-26T07:29:32;4.85;;;2.42;;
62957;SDS011;49056;48.352;10.926;2023-06-26T07:34:53;2.72;;;1.40;;
62957;SDS011;49056;48.352;10.926;2023-06-26T07:40:13;2.70;;;1.85;;
62957;SDS011;49056;48.352;10.926;2023-06-26T07:45:34;3.63;;;2.00;;
62957;SDS011;49056;48.352;10.926;2023-06-26T07:50:54;2.20;;;1.40;;
62957;SDS011;49056;48.352;10.926;2023-06-26T07:56:14;3.00;;;1.67;;
62957;SDS011;49056;48.352;10.926;2023-06-26T08:01:35;3.37;;;1.77;;
62957;SDS011;49056;48.352;10.926;2023-06-26T08:06:55;3.30;;;1.90;;
62957;SDS011;49056;48.352;10.926;2023-06-26T08:12:16;3.25;;;1.65;;
62957;SDS011;49056;48.352;10.926;2023-06-26T08:17:36;2.78;;;1.80;;
62957;SDS011;49056;48.352;10.926;2023-06-26T08:22:57;4.15;;;1.98;;
62957;SDS011;49056;48.352;10.926;2023-06-26T08:28:17;3.08;;;1.60;;
62957;SDS011;49056;48.352;10.926;2023-06-26T08:33:38;3.80;;;2.35;;
62957;SDS011;49056;48.352;10.926;2023-06-26T08:38:58;2.62;;;1.70;;
62957;SDS011;49056;48.352;10.926;2023-06-26T08:44:18;3.80;;;1.85;;
62957;SDS011;49056;48.352;10.926;2023-06-26T08:55:06;3.10;;;1.75;;
62957;SDS011;49056;48.352;10.926;2023-06-26T09:00:29;2.80;;;1.58;;
62957;SDS011;49056;48.352;10.926;2023-06-26T09:05:50;2.20;;;1.33;;
62957;SDS011;49056;48.352;10.926;2023-06-26T09:11:10;2.65;;;1.50;;
62957;SDS011;49056;48.352;10.926;2023-06-26T09:16:31;3.22;;;1.92;;
62957;SDS011;49056;48.352;10.926;2023-06-26T09:21:51;3.20;;;1.80;;
62957;SDS011;49056;48.352;10.926;2023-06-26T09:27:11;2.63;;;1.70;;
62957;SDS011;49056;48.352;10.926;2023-06-26T09:32:35;3.03;;;1.75;;
62957;SDS011;49056;48.352;10.926;2023-06-26T09:37:59;2.37;;;1.60;;
62957;SDS011;49056;48.352;10.926;2023-06-26T09:43:19;3.00;;;1.65;;
62957;SDS011;49056;48.352;10.926;2023-06-26T09:48:40;1.90;;;1.45;;
62957;SDS011;49056;48.352;10.926;2023-06-26T09:54:00;2.95;;;1.90;;
62957;SDS011;49056;48.352;10.926;2023-06-26T09:59:21;3.17;;;1.87;;
62957;SDS011;49056;48.352;10.926;2023-06-26T10:04:42;3.15;;;1.70;;
62957;SDS011;49056;48.352;10.926;2023-06-26T10:10:02;3.33;;;1.83;;
62957;SDS011;49056;48.352;10.926;2023-06-26T10:15:23;4.32;;;1.67;;
62957;SDS011;49056;48.352;10.926;2023-06-26T10:20:46;3.00;;;2.15;;
62957;SDS011;49056;48.352;10.926;2023-06-26T10:26:07;2.47;;;1.60;;
62957;SDS011;49056;48.352;10.926;2023-06-26T10:31:28;4.05;;;1.90;;
62957;SDS011;49056;48.352;10.926;2023-06-26T10:36:58;2.87;;;1.62;;
62957;SDS011;49056;48.352;10.926;2023-06-26T10:42:19;3.60;;;1.52;;
62957;SDS011;49056;48.352;10.926;2023-06-26T10:47:39;2.62;;;1.70;;
62957;SDS011;49056;48.352;10.926;2023-06-26T10:53:07;3.92;;;1.90;;
62957;SDS011;49056;48.352;10.926;2023-06-26T11:09:18;3.05;;;2.22;;
62957;SDS011;49056;48.352;10.926;2023-06-26T11:14:43;3.17;;;2.10;;
62957;SDS011;49056;48.352;10.926;2023-06-26T11:20:05;3.25;;;1.90;;
62957;SDS011;49056;48.352;10.926;2023-06-26T11:25:27;3.35;;;2.08;;
62957;SDS011;49056;48.352;10.926;2023-06-26T11:30:48;2.13;;;1.60;;
62957;SDS011;49056;48.352;10.926;2023-06-26T11:36:08;2.40;;;1.60;;
62957;SDS011;49056;48.352;10.926;2023-06-26T11:41:29;3.00;;;1.50;;
62957;SDS011;49056;48.352;10.926;2023-06-26T11:46:53;3.08;;;2.00;;
62957;SDS011;49056;48.352;10.926;2023-06-26T11:52:15;2.53;;;1.60;;
62957;SDS011;49056;48.352;10.926;2023-06-26T11:57:36;3.53;;;1.92;;
62957;SDS011;49056;48.352;10.926;2023-06-26T12:02:56;4.40;;;2.10;;
62957;SDS011;49056;48.352;10.926;2023-06-26T12:08:17;3.33;;;2.10;;
62957;SDS011;49056;48.352;10.926;2023-06-26T12:13:37;4.07;;;2.27;;
62957;SDS011;49056;48.352;10.926;2023-06-26T12:18:58;3.77;;;1.97;;
62957;SDS011;49056;48.352;10.926;2023-06-26T12:24:20;3.25;;;1.90;;
62957;SDS011;49056;48.352;10.926;2023-06-26T12:29:45;3.22;;;1.80;;
62957;SDS011;49056;48.352;10.926;2023-06-26T12:35:07;3.65;;;2.42;;
62957;SDS011;49056;48.352;10.926;2023-06-26T12:40:29;3.58;;;2.22;;
62957;SDS011;49056;48.352;10.926;2023-06-26T12:45:53;3.00;;;1.90;;
62957;SDS011;49056;48.352;10.926;2023-06-26T12:51:17;3.07;;;2.00;;
62957;SDS011;49056;48.352;10.926;2023-06-26T12:56:37;3.78;;;1.98;;
62957;SDS011;49056;48.352;10.926;2023-06-26T13:01:58;3.23;;;2.03;;
62957;SDS011;49056;48.352;10.926;2023-06-26T13:07:18;2.65;;;1.67;;
62957;SDS011;49056;48.352;10.926;2023-06-26T13:12:39;2.78;;;1.55;;
62957;SDS011;49056;48.352;10.926;2023-06-26T13:17:59;3.08;;;1.70;;
62957;SDS011;49056;48.352;10.926;2023-06-26T13:23:19;2.42;;;1.83;;
62957;SDS011;49056;48.352;10.926;2023-06-26T13:28:40;3.30;;;1.77;;
62957;SDS011;49056;48.352;10.926;2023-06-26T13:34:01;2.90;;;1.95;;
62957;SDS011;49056;48.352;10.926;2023-06-26T13:39:23;2.85;;;1.80;;
62957;SDS011;49056;48.352;10.926;2023-06-26T13:44:44;2.60;;;1.70;;
62957;SDS011;49056;48.352;10.926;2023-06-26T13:50:04;3.10;;;1.87;;
62957;SDS011;49056;48.352;10.926;2023-06-26T13:55:26;3.60;;;2.20;;
62957;SDS011;49056;48.352;10.926;2023-06-26T14:00:46;3.50;;;2.10;;
62957;SDS011;49056;48.352;10.926;2023-06-26T14:06:06;2.67;;;1.50;;
62957;SDS011;49056;48.352;10.926;2023-06-26T14:11:27;3.13;;;2.00;;
62957;SDS011;49056;48.352;10.926;2023-06-26T14:16:47;3.67;;;2.13;;
62957;SDS011;49056;48.352;10.926;2023-06-26T14:22:09;3.00;;;2.10;;
62957;SDS011;49056;48.352;10.926;2023-06-26T14:27:29;2.53;;;1.60;;
62957;SDS011;49056;48.352;10.926;2023-06-26T14:32:49;2.37;;;1.57;;
62957;SDS011;49056;48.352;10.926;2023-06-26T14:38:10;3.60;;;1.87;;
62957;SDS011;49056;48.352;10.926;2023-06-26T14:43:30;3.62;;;2.12;;
62957;SDS011;49056;48.352;10.926;2023-06-26T14:48:51;2.97;;;2.20;;
62957;SDS011;49056;48.352;10.926;2023-06-26T14:54:11;3.20;;;2.00;;
62957;SDS011;49056;48.352;10.926;2023-06-26T14:59:31;3.95;;;2.12;;
62957;SDS011;49056;48.352;10.926;2023-06-26T15:04:52;3.03;;;2.03;;
62957;SDS011;49056;48.352;10.926;2023-06-26T15:10:12;3.65;;;1.75;;
62957;SDS011;49056;48.352;10.926;2023-06-26T15:15:32;2.92;;;1.95;;
62957;SDS011;49056;48.352;10.926;2023-06-26T15:20:53;2.87;;;2.07;;
62957;SDS011;49056;48.352;10.926;2023-06-26T15:26:13;3.17;;;2.20;;
62957;SDS011;49056;48.352;10.926;2023-06-26T15:31:36;2.70;;;1.85;;
62957;SDS011;49056;48.352;10.926;2023-06-26T15:36:57;2.80;;;1.98;;
62957;SDS011;49056;48.352;10.926;2023-06-26T15:42:17;2.70;;;2.10;;
62957;SDS011;49056;48.352;10.926;2023-06-26T15:47:37;2.87;;;1.83;;
62957;SDS011;49056;48.352;10.926;2023-06-26T15:52:58;3.40;;;1.97;;
62957;SDS011;49056;48.352;10.926;2023-06-26T15:58:18;3.33;;;2.12;;
62957;SDS011;49056;48.352;10.926;2023-06-26T16:03:39;3.50;;;2.05;;
62957;SDS011;49056;48.352;10.926;2023-06-26T16:08:59;2.92;;;2.00;;
62957;SDS011;49056;48.352;10.926;2023-06-26T16:14:20;3.95;;;2.40;;
62957;SDS011;49056;48.352;10.926;2023-06-26T16:19:40;3.70;;;2.53;;
62957;SDS011;49056;48.352;10.926;2023-06-26T16:25:01;3.70;;;2.37;;
62957;SDS011;49056;48.352;10.926;2023-06-26T16:30:21;3.78;;;2.25;;
62957;SDS011;49056;48.352;10.926;2023-06-26T16:35:42;3.53;;;2.00;;
62957;SDS011;49056;48.352;10.926;2023-06-26T16:41:02;3.40;;;2.30;;
62957;SDS011;49056;48.352;10.926;2023-06-26T16:46:22;3.97;;;2.45;;
62957;SDS011;49056;48.352;10.926;2023-06-26T16:51:43;3.63;;;2.33;;
62957;SDS011;49056;48.352;10.926;2023-06-26T16:57:03;3.65;;;2.42;;
62957;SDS011;49056;48.352;10.926;2023-06-26T17:02:24;3.63;;;2.10;;
62957;SDS011;49056;48.352;10.926;2023-06-26T17:07:44;3.47;;;2.13;;
62957;SDS011;49056;48.352;10.926;2023-06-26T17:13:04;2.60;;;2.00;;
62957;SDS011;49056;48.352;10.926;2023-06-26T17:18:25;3.20;;;2.17;;
62957;SDS011;49056;48.352;10.926;2023-06-26T17:23:45;4.25;;;2.47;;
62957;SDS011;49056;48.352;10.926;2023-06-26T17:29:06;3.62;;;2.10;;
62957;SDS011;49056;48.352;10.926;2023-06-26T17:34:26;3.40;;;2.33;;
62957;SDS011;49056;48.352;10.926;2023-06-26T17:39:46;3.58;;;1.87;;
62957;SDS011;49056;48.352;10.926;2023-06-26T17:45:07;3.17;;;2.00;;
62957;SDS011;49056;48.352;10.926;2023-06-26T17:50:27;2.70;;;1.80;;
62957;SDS011;49056;48.352;10.926;2023-06-26T17:55:49;3.65;;;2.37;;
62957;SDS011;49056;48.352;10.926;2023-06-26T18:01:09;3.05;;;2.03;;
62957;SDS011;49056;48.352;10.926;2023-06-26T18:06:30;3.60;;;2.13;;
62957;SDS011;49056;48.352;10.926;2023-06-26T18:11:50;3.90;;;2.20;;
62957;SDS011;49056;48.352;10.926;2023-06-26T18:17:10;3.42;;;2.30;;
62957;SDS011;49056;48.352;10.926;2023-06-26T18:22:30;4.35;;;2.22;;
62957;SDS011;49056;48.352;10.926;2023-06-26T18:27:51;2.85;;;1.80;;
62957;SDS011;49056;48.352;10.926;2023-06-26T18:33:11;3.30;;;2.33;;
62957;SDS011;49056;48.352;10.926;2023-06-26T18:38:31;3.35;;;1.80;;
62957;SDS011;49056;48.352;10.926;2023-06-26T18:43:52;2.90;;;2.12;;
62957;SDS011;49056;48.352;10.926;2023-06-26T18:49:13;3.53;;;2.08;;
62957;SDS011;49056;48.352;10.926;2023-06-26T18:54:33;3.37;;;2.20;;
62957;SDS011;49056;48.352;10.926;2023-06-26T18:59:53;3.65;;;2.30;;
62957;SDS011;49056;48.352;10.926;2023-06-26T19:05:14;3.65;;;1.98;;
62957;SDS011;49056;48.352;10.926;2023-06-26T19:10:34;3.28;;;2.12;;
62957;SDS011;49056;48.352;10.926;2023-06-26T19:15:55;3.60;;;2.30;;
62957;SDS011;49056;48.352;10.926;2023-06-26T19:21:15;3.20;;;2.03;;
62957;SDS011;49056;48.352;10.926;2023-06-26T19:26:35;4.32;;;2.25;;
62957;SDS011;49056;48.352;10.926;2023-06-26T19:31:57;4.47;;;2.00;;
62957;SDS011;49056;48.352;10.926;2023-06-26T19:37:18;3.58;;;1.80;;
62957;SDS011;49056;48.352;10.926;2023-06-26T19:42:39;2.73;;;1.87;;
62957;SDS011;49056;48.352;10.926;2023-06-26T19:47:59;3.50;;;2.00;;
62957;SDS011;49056;48.352;10.926;2023-06-26T19:53:19;4.13;;;2.30;;
62957;SDS011;49056;48.352;10.926;2023-06-26T19:58:40;3.67;;;2.07;;
62957;SDS011;49056;48.352;10.926;2023-06-26T20:04:00;4.20;;;1.87;;
62957;SDS011;49056;48.352;10.926;2023-06-26T20:09:24;3.17;;;1.90;;
62957;SDS011;49056;48.352;10.926;2023-06-26T20:14:46;4.07;;;2.00;;
62957;SDS011;49056;48.352;10.926;2023-06-26T20:20:07;2.62;;;1.70;;
62957;SDS011;49056;48.352;10.926;2023-06-26T20:25:28;2.80;;;1.45;;
62957;SDS011;49056;48.352;10.926;2023-06-26T20:30:48;3.50;;;2.10;;
62957;SDS011;49056;48.352;10.926;2023-06-26T20:36:08;2.90;;;2.03;;
62957;SDS011;49056;48.352;10.926;2023-06-26T20:41:29;3.20;;;2.00;;
62957;SDS011;49056;48.352;10.926;2023-06-26T20:46:49;2.87;;;1.47;;
62957;SDS011;49056;48.352;10.926;2023-06-26T20:52:16;3.25;;;1.70;;
62957;SDS011;49056;48.352;10.926;2023-06-26T20:57:38;3.53;;;2.25;;
62957;SDS011;49056;48.352;10.926;2023-06-26T21:02:59;3.42;;;1.80;;
62957;SDS011;49056;48.352;10.926;2023-06-26T21:08:19;2.47;;;1.42;;
62957;SDS011;49056;48.352;10.926;2023-06-26T21:13:40;3.90;;;1.90;;
62957;SDS011;49056;48.352;10.926;2023-06-26T21:19:00;2.53;;;1.73;;
62957;SDS011;49056;48.352;10.926;2023-06-26T21:24:20;3.45;;;1.70;;
62957;SDS011;49056;48.352;10.926;2023-06-26T21:29:41;3.43;;;1.70;;
62957;SDS011;49056;48.352;10.926;2023-06-26T21:35:01;2.75;;;1.80;;
62957;SDS011;49056;48.352;10.926;2023-06-26T21:40:21;2.53;;;1.70;;
62957;SDS011;49056;48.352;10.926;2023-06-26T21:45:41;2.83;;;1.45;;
62957;SDS011;49056;48.352;10.926;2023-06-26T21:51:02;4.10;;;1.53;;
62957;SDS011;49056;48.352;10.926;2023-06-26T21:56:24;4.10;;;1.80;;
62957;SDS011;49056;48.352;10.926;2023-06-26T22:01:44;2.42;;;1.37;;
62957;SDS011;49056;48.352;10.926;2023-06-26T22:07:04;1.67;;;1.10;;
62957;SDS011;49056;48.352;10.926;2023-06-26T22:12:25;2.50;;;1.03;;
62957;SDS011;49056;48.352;10.926;2023-06-26T22:17:53;2.28;;;1.35;;
62957;SDS011;49056;48.352;10.926;2023-06-26T22:23:13;1.73;;;1.02;;
62957;SDS011;49056;48.352;10.926;2023-06-26T22:28:34;2.60;;;1.40;;
62957;SDS011;49056;48.352;10.926;2023-06-26T22:33:54;2.47;;;1.27;;
62957;SDS011;49056;48.352;10.926;2023-06-26T22:39:14;2.10;;;1.00;;
62957;SDS011;49056;48.352;10.926;2023-06-26T22:44:35;1.90;;;1.05;;
62957;SDS011;49056;48.352;10.926;2023-06-26T22:49:56;2.17;;;1.05;;
62957;SDS011;49056;48.352;10.926;2023-06-26T22:55:16;2.00;;;1.05;;
62957;SDS011;49056;48.352;10.926;2023-06-26T23:00:36;2.15;;;1.35;;
62957;SDS011;49056;48.352;10.926;2023-06-26T23:05:57;1.77;;;0.98;;
62957;SDS011;49056;48.352;10.926;2023-06-26T23:11:18;2.07;;;1.10;;
62957;SDS011;49056;48.352;10.926;2023-06-26T23:16:38;2.15;;;1.00;;
62957;SDS011;49056;48.352;10.926;2023-06-26T23:21:59;1.48;;;0.90;;
62957;SDS011;49056;48.352;10.926;2023-06-26T23:27:20;5.93;;;1.20;;
62957;SDS011;49056;48.352;10.926;2023-06-26T23:32:40;1.35;;;0.62;;
62957;SDS011;49056;48.352;10.926;2023-06-26T23:38:00;1.17;;;0.70;;
62957;SDS011;49056;48.352;10.926;2023-06-26T23:43:21;1.05;;;0.73;;
62957;SDS011;49056;48.352;10.926;2023-06-26T23:48:44;1.83;;;0.95;;
62957;SDS011;49056;48.352;10.926;2023-06-26T23:54:04;1.58;;;0.80;;
62957;SDS011;49056;48.352;10.926;2023-06-26T23:59:25;2.22;;;0.70;;
